Nearby METAR Reports

 

KMHT - Manchester, New Hampshire, USA
Distance from station: W 16mi, 26km
Updated: Mon, 19-Feb-2018 11:53pm EST
Overcast
Overcast
 Wind from S
Wind: S 6 mph , 9 km/h
Temperature: 45°F , 7°C
Wind Chill: 42°F , 6°C
Dew Point: 43°F , 6°C
Humidity: 93%
Barometer: 30.23 inHg , 1023.7 hPa
Clouds: Overcast
Visibility: 10 miles , 16 km
Cloud details: Mostly cloudy 1900 ft
Mostly cloudy 5500 ft
Overcast 9500 ft
2018/02/20 04:53 KMHT 200453Z 19005KT 10SM BKN019 BKN055 OVC095 07/06 A3023 RMK AO2 RAE00 SLP252 P0000 T00670061 400891083
KPSM - Portsmouth/Pease, New Hampshire, USA
Distance from station: ENE 17mi, 27km
Updated: Tue, 20-Feb-2018 12:10am EST
Overcast
Overcast
 Wind from SW
Wind: SW 6 mph , 9 km/h
Temperature: 45°F , 7°C
Wind Chill: 42°F , 6°C
Dew Point: 45°F , 7°C
Humidity: 100%
Barometer: 30.23 inHg , 1023.7 hPa
Clouds: Overcast
Visibility: 8 miles , 13 km
Cloud details: Partly cloudy 700 ft
Mostly cloudy 1300 ft
Overcast 1900 ft
2018/02/20 05:10 KPSM 200510Z 22005KT 8SM SCT007 BKN013 OVC019 07/07 A3023 RMK AO2A
 
KASH - Nashua/Boire Fld, New Hampshire, USA
Distance from station: WSW 24mi, 38km
Updated: Mon, 19-Feb-2018 11:56pm EST
Overcast
Overcast
 Wind from varies
Wind: varies 5 mph , 7 km/h
Temperature: 46°F , 8°C
Wind Chill: 44°F , 7°C
Dew Point: 46°F , 8°C
Humidity: 100%
Barometer: 30.25 inHg , 1024.4 hPa
Clouds: Overcast
Visibility: 10 miles , 16 km
Cloud details: Mostly cloudy 1800 ft
Overcast 6500 ft
2018/02/20 04:56 KASH 200456Z AUTO VRB04KT 10SM BKN018 OVC065 08/08 A3025 RMK AO2 RAE26 SLP254 P0000 T00830078
KDAW - Rochester, New Hampshire, USA
Distance from station: NNE 24mi, 39km
Updated: Tue, 20-Feb-2018 12:09am EST
Mist, Overcast
Mist, Overcast
 Wind from calm
Wind: Calm
Temperature: 41°F , 5°C
Dew Point: 41°F , 5°C
Humidity: 100%
Barometer: 30.22 inHg , 1023.4 hPa
Summary: Mist
Clouds: Overcast
Visibility: 1 mile , 2 km
Cloud details: Overcast 400 ft
2018/02/20 05:09 KDAW 200509Z AUTO 00000KT 1SM BR OVC004 05/05 A3022 RMK AO2 RAE0458 P0000 T00500050